Time;durP1;ratioP1;P1;durP2;ratioP2;P2;SDS_P1;SDS_P2;PMS_P1;PMS_P2;Temp;Humidity;BMP_temperature;BMP_pressure;BME280_temperature;BME280_humidity;BME280_pressure;Samples;Min_cycle;Max_cycle;Signal;HPM_P1;HPM_P2
2021/07/03 00:01:58;;;;;;;;;13.25;12.00;;;;;25.78;46.27;101051.72;5012498;27;51216;-43
2021/07/03 00:04:25;;;;;;;;;13.00;11.75;;;;;25.77;46.51;101053.66;5012941;28;50997;-44
2021/07/03 00:06:50;;;;;;;;;11.00;11.00;;;;;25.77;46.38;101056.44;5014837;28;51111;-47
2021/07/03 00:09:16;;;;;;;;;8.50;8.50;;;;;25.77;46.06;101056.44;5021941;28;50964;-45
2021/07/03 00:11:42;;;;;;;;;13.00;11.50;;;;;25.77;46.29;101063.91;5027843;28;51153;-44
2021/07/03 00:14:08;;;;;;;;;10.50;10.50;;;;;25.76;46.33;101059.47;5012347;28;51112;-44
2021/07/03 00:16:34;;;;;;;;;11.00;10.75;;;;;25.76;46.53;101051.97;5029539;27;51474;-45
2021/07/03 00:18:59;;;;;;;;;13.00;11.75;;;;;25.76;46.50;101060.31;5011954;28;51957;-44
2021/07/03 00:21:25;;;;;;;;;11.50;9.75;;;;;25.76;46.46;101053.91;5030540;28;52419;-46
2021/07/03 00:23:50;;;;;;;;;14.25;13.50;;;;;25.75;46.63;101061.41;5018102;27;51010;-45
2021/07/03 00:26:15;;;;;;;;;14.75;14.50;;;;;25.74;46.36;101054.16;5013517;28;51167;-46
2021/07/03 00:28:41;;;;;;;;;13.50;12.00;;;;;25.75;46.38;101052.22;5017561;27;51098;-46
2021/07/03 00:31:06;;;;;;;;;11.75;10.00;;;;;25.74;46.49;101045.84;5011844;28;51480;-45
2021/07/03 00:33:31;;;;;;;;;11.50;10.50;;;;;25.75;46.50;101052.22;5011943;28;51108;-45
2021/07/03 00:35:57;;;;;;;;;12.25;11.75;;;;;25.74;46.37;101050.53;5013384;28;51062;-44
2021/07/03 00:38:22;;;;;;;;;9.00;9.00;;;;;25.72;46.65;101042.47;5015165;27;51579;-46
2021/07/03 00:40:48;;;;;;;;;11.00;9.75;;;;;25.71;46.27;101040.78;5014386;28;50989;-46
2021/07/03 00:43:13;;;;;;;;;14.00;11.75;;;;;25.72;46.46;101048.00;5031745;28;50513;-44
2021/07/03 00:45:39;;;;;;;;;15.00;11.50;;;;;25.72;46.39;101050.78;5014633;28;51086;-45
2021/07/03 00:48:05;;;;;;;;;12.75;11.25;;;;;25.73;46.35;101049.69;5012883;27;50964;-47
2021/07/03 00:50:31;;;;;;;;;13.75;10.75;;;;;25.72;46.52;101053.56;5012289;28;51129;-46
2021/07/03 00:52:56;;;;;;;;;14.50;12.25;;;;;25.72;46.52;101045.22;5015254;28;50891;-45
2021/07/03 00:55:22;;;;;;;;;11.50;10.00;;;;;25.71;46.33;101038.00;5013775;28;51267;-45
2021/07/03 00:57:48;;;;;;;;;11.25;10.25;;;;;25.70;46.69;101039.09;5011111;27;51103;-46
2021/07/03 01:00:15;;;;;;;;;13.25;12.00;;;;;25.71;46.61;101037.16;5010816;28;51031;-46
2021/07/03 01:02:40;;;;;;;;;10.75;10.00;;;;;25.69;46.33;101034.63;5011261;28;51189;-46
2021/07/03 01:05:06;;;;;;;;;10.00;10.00;;;;;25.71;46.59;101043.56;5011301;28;51057;-44
2021/07/03 01:07:33;;;;;;;;;13.00;10.75;;;;;25.70;46.40;101044.66;5012387;28;51209;-44
2021/07/03 01:09:58;;;;;;;;;13.25;12.00;;;;;25.69;46.55;101037.38;5016706;28;52447;-45
2021/07/03 01:12:24;;;;;;;;;10.00;10.00;;;;;25.70;46.39;101036.31;5015733;28;51046;-44
2021/07/03 01:14:51;;;;;;;;;12.00;9.25;;;;;25.69;46.54;101034.63;5018279;28;51094;-48
2021/07/03 01:17:17;;;;;;;;;9.75;9.75;;;;;25.69;46.44;101034.63;5014628;28;51183;-44
2021/07/03 01:19:43;;;;;;;;;16.25;11.00;;;;;25.71;46.57;101032.47;5014601;28;51859;-44
2021/07/03 01:22:11;;;;;;;;;10.75;10.75;;;;;25.69;46.33;101029.06;5014381;28;51133;-46
2021/07/03 01:24:37;;;;;;;;;11.25;11.25;;;;;25.68;46.57;101027.38;5018356;27;51132;-45
2021/07/03 01:27:04;;;;;;;;;11.75;11.75;;;;;25.68;46.39;101024.63;5020230;27;51013;-45
2021/07/03 01:29:32;;;;;;;;;9.25;9.00;;;;;25.68;46.67;101013.50;5018017;28;51693;-44
2021/07/03 01:31:59;;;;;;;;;12.25;12.25;;;;;25.68;46.43;101015.44;5042590;28;51316;-45
2021/07/03 01:34:27;;;;;;;;;9.75;9.75;;;;;25.68;46.56;101009.91;5008162;28;51215;-46
2021/07/03 01:36:53;;;;;;;;;12.50;11.75;;;;;25.67;46.40;101019.31;5016036;28;50977;-46
2021/07/03 01:39:18;;;;;;;;;13.75;12.75;;;;;25.67;46.36;101016.56;5016705;27;51120;-44
2021/07/03 01:41:44;;;;;;;;;11.50;11.50;;;;;25.67;46.83;101011.00;5019423;28;51166;-45
2021/07/03 01:44:11;;;;;;;;;13.50;12.50;;;;;25.67;46.73;101008.22;5030659;28;50473;-46
2021/07/03 01:46:37;;;;;;;;;12.75;12.00;;;;;25.66;46.75;101010.16;5014863;28;51065;-45
2021/07/03 01:49:08;;;;;;;;;11.25;10.25;;;;;25.65;46.73;101005.72;5013881;27;51179;-47
2021/07/03 01:51:34;;;;;;;;;11.75;9.25;;;;;25.66;46.80;101006.56;5010399;28;50976;-45
2021/07/03 01:54:00;;;;;;;;;11.50;10.25;;;;;25.65;46.97;101005.72;5015516;28;51228;-45
2021/07/03 01:56:26;;;;;;;;;11.75;10.75;;;;;25.65;46.88;101011.25;5019064;28;51317;-46
2021/07/03 01:58:52;;;;;;;;;10.75;10.25;;;;;25.66;46.91;101012.09;5016092;27;52603;-45
2021/07/03 02:01:17;;;;;;;;;6.75;6.75;;;;;25.65;47.14;100999.31;5013779;28;51094;-46
2021/07/03 02:03:44;;;;;;;;;15.25;9.25;;;;;25.65;47.06;101002.94;5014152;28;50997;-46
2021/07/03 02:06:10;;;;;;;;;12.75;12.25;;;;;25.66;46.67;101001.00;5017672;28;51121;-47
2021/07/03 02:08:36;;;;;;;;;11.25;10.00;;;;;25.64;47.18;100992.94;5014679;28;51995;-44
2021/07/03 02:11:02;;;;;;;;;14.00;12.50;;;;;25.65;47.14;101004.88;5012643;27;51101;-47
2021/07/03 02:13:29;;;;;;;;;13.75;13.75;;;;;25.64;46.95;100995.72;5016973;28;51297;-48
2021/07/03 02:15:55;;;;;;;;;10.75;10.75;;;;;25.63;47.01;101003.16;5016044;28;51064;-45
2021/07/03 02:18:21;;;;;;;;;11.00;11.00;;;;;25.64;46.84;101001.25;5015164;28;51141;-46
2021/07/03 02:20:47;;;;;;;;;11.50;11.00;;;;;25.63;47.27;101003.16;5014682;27;50863;-47
2021/07/03 02:23:13;;;;;;;;;13.50;13.50;;;;;25.64;46.87;101001.25;5014180;28;51134;-44
2021/07/03 02:25:39;;;;;;;;;12.00;11.50;;;;;25.64;46.91;101004.03;5015350;28;51264;-45
2021/07/03 02:28:04;;;;;;;;;13.00;11.00;;;;;25.63;46.89;101000.38;5022668;27;51245;-45
2021/07/03 02:30:30;;;;;;;;;16.50;15.25;;;;;25.62;47.06;101001.47;5015898;28;52582;-46
2021/07/03 02:32:57;;;;;;;;;12.75;11.00;;;;;25.63;46.97;100996.78;5017830;28;51170;-45
2021/07/03 02:35:23;;;;;;;;;14.00;12.50;;;;;25.62;47.01;100997.88;5014162;28;51269;-46
2021/07/03 02:37:49;;;;;;;;;14.25;13.25;;;;;25.63;46.91;100996.78;5013737;28;51070;-44
2021/07/03 02:40:16;;;;;;;;;11.00;10.75;;;;;25.62;46.96;101001.47;5015351;28;51069;-45
2021/07/03 02:42:42;;;;;;;;;12.00;11.25;;;;;25.61;46.61;100999.81;5018785;28;51086;-45
2021/07/03 02:45:11;;;;;;;;;14.25;11.75;;;;;25.62;47.13;101000.66;5031596;28;50556;-46
2021/07/03 02:47:37;;;;;;;;;12.50;10.00;;;;;25.61;46.97;100994.25;5016085;28;51048;-46
2021/07/03 02:50:08;;;;;;;;;9.50;9.25;;;;;25.61;47.06;100993.41;5020125;28;51148;-47
2021/07/03 02:52:34;;;;;;;;;14.50;11.50;;;;;25.61;46.90;100993.41;5026010;27;51061;-46
2021/07/03 02:54:59;;;;;;;;;12.50;12.00;;;;;25.60;47.08;101000.06;5013727;28;51001;-47
2021/07/03 02:57:24;;;;;;;;;11.25;10.50;;;;;25.61;46.76;100996.19;5015656;28;51809;-44
2021/07/03 02:59:50;;;;;;;;;9.50;9.50;;;;;25.61;47.00;101002.59;5017814;28;51434;-45
2021/07/03 03:02:15;;;;;;;;;13.50;13.00;;;;;25.60;46.92;100991.75;5012859;28;51124;-44
2021/07/03 03:04:40;;;;;;;;;9.25;8.75;;;;;25.60;46.73;101000.06;5015059;28;51046;-45
2021/07/03 03:07:06;;;;;;;;;12.75;11.00;;;;;25.59;46.86;101002.00;5013959;28;51872;-45
2021/07/03 03:09:32;;;;;;;;;10.25;10.25;;;;;25.60;46.79;100991.75;5013194;28;51222;-47
2021/07/03 03:11:57;;;;;;;;;14.50;11.75;;;;;25.60;46.58;100988.97;5013617;27;51062;-44
2021/07/03 03:14:24;;;;;;;;;15.25;13.00;;;;;25.60;46.99;100991.75;5017423;28;51353;-48
2021/07/03 03:16:50;;;;;;;;;12.75;12.25;;;;;25.60;46.85;100991.75;5014100;28;51957;-46
2021/07/03 03:19:15;;;;;;;;;12.00;10.75;;;;;25.58;47.13;100982.84;5012939;28;51222;-44
2021/07/03 03:21:40;;;;;;;;;13.75;11.50;;;;;25.58;46.92;100988.38;5013610;28;50915;-47
2021/07/03 03:24:06;;;;;;;;;10.50;10.00;;;;;25.57;46.83;100992.25;5016289;28;50927;-45
2021/07/03 03:26:31;;;;;;;;;11.50;11.50;;;;;25.57;46.80;100986.72;5014678;28;51096;-48
2021/07/03 03:28:56;;;;;;;;;12.00;12.00;;;;;25.57;46.73;100984.78;5038161;27;51074;-45
2021/07/03 03:31:22;;;;;;;;;11.00;11.00;;;;;25.58;46.51;100985.63;5014690;27;51098;-46
2021/07/03 03:33:47;;;;;;;;;14.75;12.50;;;;;25.57;46.90;100978.38;5013097;28;51158;-44
2021/07/03 03:36:13;;;;;;;;;8.25;8.25;;;;;25.58;46.63;100988.38;5012440;27;51000;-44
2021/07/03 03:38:38;;;;;;;;;11.25;9.75;;;;;25.57;47.00;100983.94;5012379;28;51238;-44
2021/07/03 03:41:03;;;;;;;;;13.25;10.00;;;;;25.57;46.81;100986.72;5013796;28;51266;-45
2021/07/03 03:43:29;;;;;;;;;11.75;8.75;;;;;25.57;46.74;100981.16;5016218;28;51214;-44
2021/07/03 03:45:54;;;;;;;;;12.50;12.50;;;;;25.55;46.98;100975.88;5025990;28;51730;-43
2021/07/03 03:48:20;;;;;;;;;10.75;9.75;;;;;25.55;46.76;100984.19;5024140;28;51090;-44
2021/07/03 03:50:45;;;;;;;;;10.25;10.25;;;;;25.56;47.03;100990.59;5016386;28;51263;-44
2021/07/03 03:53:10;;;;;;;;;13.00;10.25;;;;;25.55;46.76;101003.59;5016227;28;51019;-45
2021/07/03 03:55:36;;;;;;;;;12.00;10.25;;;;;25.55;46.72;100995.28;5012633;28;51073;-43
2021/07/03 03:58:01;;;;;;;;;11.50;9.50;;;;;25.55;46.92;100998.06;5012145;28;52551;-44
2021/07/03 04:00:27;;;;;;;;;13.00;11.00;;;;;25.55;46.76;101000.00;5016122;28;51315;-44
2021/07/03 04:02:52;;;;;;;;;10.75;8.50;;;;;25.55;46.87;101002.78;5015126;28;51450;-46
2021/07/03 04:05:18;;;;;;;;;15.50;11.00;;;;;25.54;46.94;101007.47;5013172;28;51034;-47
2021/07/03 04:07:44;;;;;;;;;11.00;10.25;;;;;25.55;46.76;101009.16;5012394;27;51088;-45
2021/07/03 04:10:12;;;;;;;;;11.00;9.50;;;;;25.54;46.68;101010.25;5014106;28;50996;-47
2021/07/03 04:12:38;;;;;;;;;12.25;9.25;;;;;25.53;46.73;101003.03;5030303;27;50767;-45
2021/07/03 04:15:05;;;;;;;;;10.00;9.50;;;;;25.53;46.76;101004.94;5032273;28;52885;-50
2021/07/03 04:17:30;;;;;;;;;10.00;8.50;;;;;25.54;46.83;101003.88;5025363;27;51514;-47
2021/07/03 04:19:55;;;;;;;;;8.50;7.00;;;;;25.53;46.80;101008.56;5027719;27;51213;-47
2021/07/03 04:22:21;;;;;;;;;12.75;9.75;;;;;25.53;46.78;101007.72;5012409;28;51185;-44
2021/07/03 04:24:46;;;;;;;;;11.75;10.00;;;;;25.54;46.69;101006.63;5011395;27;51663;-50
2021/07/03 04:27:12;;;;;;;;;11.75;10.50;;;;;25.53;46.80;101003.03;5016609;27;51185;-43
2021/07/03 04:29:37;;;;;;;;;9.75;9.75;;;;;25.53;46.93;101013.25;5011729;28;51039;-43
2021/07/03 04:32:04;;;;;;;;;10.75;9.75;;;;;25.53;46.60;101007.72;5016219;28;51203;-47
2021/07/03 04:34:29;;;;;;;;;11.75;10.50;;;;;25.54;46.54;101009.41;5013485;28;51085;-48
2021/07/03 04:36:55;;;;;;;;;12.75;10.75;;;;;25.53;46.96;101004.94;5012056;28;50926;-44
2021/07/03 04:39:21;;;;;;;;;10.75;9.75;;;;;25.53;46.79;101002.16;5028042;27;51107;-47
2021/07/03 04:41:46;;;;;;;;;12.25;10.50;;;;;25.53;46.67;101013.25;5014739;28;51381;-45
2021/07/03 04:44:13;;;;;;;;;10.50;10.00;;;;;25.52;47.07;101009.63;5015239;28;51859;-44
2021/07/03 04:46:39;;;;;;;;;11.00;8.75;;;;;25.51;46.98;101013.50;5020322;28;50948;-44
2021/07/03 04:49:04;;;;;;;;;10.25;10.25;;;;;25.51;46.87;101021.81;5032918;28;50835;-47
2021/07/03 04:51:30;;;;;;;;;14.25;11.75;;;;;25.51;46.84;101018.22;5014475;28;51219;-46
2021/07/03 04:53:55;;;;;;;;;10.00;7.50;;;;;25.52;46.68;101022.66;5013855;28;51549;-45
2021/07/03 04:56:21;;;;;;;;;12.00;9.00;;;;;25.51;46.87;101021.00;5013761;27;51120;-47
2021/07/03 04:58:47;;;;;;;;;10.00;9.00;;;;;25.51;47.15;101023.75;5014632;28;50976;-44
2021/07/03 05:01:12;;;;;;;;;14.25;11.25;;;;;25.50;46.71;101025.69;5015344;28;51175;-45
2021/07/03 05:03:37;;;;;;;;;10.00;10.00;;;;;25.50;47.14;101022.94;5019333;28;51078;-45
2021/07/03 05:06:03;;;;;;;;;11.50;8.25;;;;;25.50;46.82;101020.16;5015829;28;51071;-45
2021/07/03 05:08:28;;;;;;;;;11.00;9.50;;;;;25.49;47.08;101017.63;5016621;28;51138;-45
2021/07/03 05:10:54;;;;;;;;;12.50;9.00;;;;;25.49;46.96;101017.63;5017016;28;50938;-45
2021/07/03 05:13:19;;;;;;;;;9.50;9.00;;;;;25.48;46.89;101016.78;5014586;28;51288;-44
2021/07/03 05:15:44;;;;;;;;;11.00;10.00;;;;;25.48;47.21;101002.94;5015065;27;50998;-42
2021/07/03 05:18:10;;;;;;;;;9.00;9.00;;;;;25.48;47.22;101002.94;5032213;28;51205;-45
2021/07/03 05:20:35;;;;;;;;;10.00;10.00;;;;;25.49;47.39;101001.00;5017856;28;51120;-44
2021/07/03 05:23:01;;;;;;;;;9.00;7.75;;;;;25.49;47.30;100995.44;5014361;28;51045;-44
2021/07/03 05:25:26;;;;;;;;;9.25;7.00;;;;;25.47;47.31;100992.94;5014216;28;51357;-43
2021/07/03 05:27:51;;;;;;;;;12.25;9.75;;;;;25.48;47.43;100994.59;5022402;27;51470;-45
2021/07/03 05:30:17;;;;;;;;;9.75;8.50;;;;;25.48;47.50;100997.38;5014362;28;51094;-47
2021/07/03 05:32:42;;;;;;;;;12.00;10.50;;;;;25.49;47.53;100998.22;5023629;28;51978;-43
2021/07/03 05:35:08;;;;;;;;;12.00;12.00;;;;;25.49;47.47;100989.91;5029267;28;51028;-44
2021/07/03 05:37:34;;;;;;;;;14.25;14.25;;;;;25.49;47.65;100995.44;5017944;28;51126;-44
2021/07/03 05:39:59;;;;;;;;;12.75;10.25;;;;;25.49;47.85;100995.44;5013866;28;51464;-44
2021/07/03 05:42:25;;;;;;;;;11.75;11.75;;;;;25.48;47.67;100997.38;5015389;28;52138;-44
2021/07/03 05:44:50;;;;;;;;;13.75;12.50;;;;;25.50;47.63;100997.13;5012500;28;51189;-44
2021/07/03 05:47:19;;;;;;;;;12.25;9.75;;;;;25.49;47.52;100999.06;5016508;28;51221;-47
2021/07/03 05:49:44;;;;;;;;;13.50;10.00;;;;;25.50;47.47;100997.13;5020854;27;50962;-44
2021/07/03 05:52:10;;;;;;;;;10.75;10.75;;;;;25.49;47.60;100998.22;5030854;28;50797;-44
2021/07/03 05:54:35;;;;;;;;;10.50;10.50;;;;;25.50;47.59;100999.91;5013529;28;51468;-45
2021/07/03 05:57:01;;;;;;;;;13.50;10.50;;;;;25.50;47.78;100999.91;5014040;27;51159;-45
2021/07/03 05:59:26;;;;;;;;;8.00;8.00;;;;;25.50;47.82;101002.66;5013662;28;51352;-45
2021/07/03 06:01:52;;;;;;;;;9.25;8.75;;;;;25.50;47.63;101002.66;5015368;27;50883;-47
2021/07/03 06:04:17;;;;;;;;;13.00;11.50;;;;;25.49;47.77;100999.06;5017744;28;51045;-44
2021/07/03 06:06:42;;;;;;;;;11.75;10.50;;;;;25.51;47.96;101005.19;5017620;28;51063;-48
2021/07/03 06:09:07;;;;;;;;;12.75;12.25;;;;;25.51;47.64;100999.63;5013822;28;51372;-54
2021/07/03 06:11:33;;;;;;;;;15.00;12.75;;;;;25.52;47.60;101008.81;5014069;27;51108;-54
2021/07/03 06:14:00;;;;;;;;;11.00;10.75;;;;;25.53;47.62;101014.13;5014136;28;51865;-53
2021/07/03 06:16:25;;;;;;;;;12.50;12.50;;;;;25.53;47.58;101018.81;5013974;28;51403;-54
2021/07/03 06:18:51;;;;;;;;;14.25;11.25;;;;;25.53;47.49;101008.56;5014456;28;51036;-54
2021/07/03 06:21:17;;;;;;;;;12.25;11.25;;;;;25.52;47.50;101012.41;5016835;28;51216;-53
2021/07/03 06:23:42;;;;;;;;;16.75;13.00;;;;;25.52;47.52;101015.19;5015492;28;51239;-51
2021/07/03 06:26:07;;;;;;;;;12.25;12.00;;;;;25.51;47.78;101019.06;5013952;28;51153;-55
2021/07/03 06:28:33;;;;;;;;;14.50;14.50;;;;;25.52;47.95;101017.13;5014006;27;51198;-52
2021/07/03 06:30:59;;;;;;;;;13.50;12.50;;;;;25.50;47.81;101011.84;5014396;28;51702;-54
2021/07/03 06:33:27;;;;;;;;;13.50;13.00;;;;;25.49;47.66;101018.47;5012438;28;50976;-49
2021/07/03 06:35:52;;;;;;;;;13.50;10.75;;;;;25.49;47.54;101007.38;5016907;28;50990;-52
2021/07/03 06:38:18;;;;;;;;;13.50;12.50;;;;;25.49;47.61;101012.94;5015399;27;50965;-48
2021/07/03 06:40:43;;;;;;;;;12.75;10.00;;;;;25.49;47.72;101012.94;5013308;28;51522;-50
2021/07/03 06:43:09;;;;;;;;;13.25;10.75;;;;;25.49;47.89;101012.94;5013582;28;51229;-51
2021/07/03 06:45:34;;;;;;;;;12.25;11.75;;;;;25.49;47.98;101024.03;5013431;28;51127;-48
2021/07/03 06:48:00;;;;;;;;;12.50;11.25;;;;;25.49;48.33;101018.47;5012808;28;51039;-55
2021/07/03 06:50:25;;;;;;;;;16.00;12.25;;;;;25.50;48.04;101022.09;5014456;28;51172;-52
2021/07/03 06:52:51;;;;;;;;;16.00;16.00;;;;;25.53;48.61;101032.66;5015241;28;51157;-50
2021/07/03 06:55:16;;;;;;;;;11.00;11.00;;;;;25.53;49.20;101025.22;5025060;27;51704;-45
2021/07/03 06:57:42;;;;;;;;;12.75;11.00;;;;;25.55;48.69;101027.72;5014042;28;51156;-47
2021/07/03 07:00:09;;;;;;;;;13.75;10.50;;;;;25.56;48.95;101030.25;5022511;28;53817;-54
2021/07/03 07:02:34;;;;;;;;;10.50;10.00;;;;;25.59;48.76;101026.13;5013019;28;51142;-53
2021/07/03 07:04:59;;;;;;;;;12.25;8.75;;;;;25.58;48.89;101025.28;5012799;28;51121;-51
2021/07/03 07:07:25;;;;;;;;;11.75;11.25;;;;;25.59;48.96;101035.28;5014307;28;51271;-55
2021/07/03 07:09:50;;;;;;;;;13.25;10.25;;;;;25.60;48.81;101036.13;5014858;27;51029;-51
2021/07/03 07:12:16;;;;;;;;;12.75;12.00;;;;;25.61;48.57;101037.81;5012922;28;51056;-56
2021/07/03 07:14:42;;;;;;;;;12.00;10.50;;;;;25.61;48.91;101033.09;5011378;28;51185;-53
2021/07/03 07:17:08;;;;;;;;;11.50;11.00;;;;;25.61;48.69;101033.09;5013707;27;51177;-53
2021/07/03 07:19:33;;;;;;;;;13.50;11.75;;;;;25.61;48.32;101037.81;5013833;28;51629;-52
2021/07/03 07:21:59;;;;;;;;;11.50;10.50;;;;;25.62;48.78;101036.72;5011408;27;50945;-49
2021/07/03 07:24:24;;;;;;;;;11.25;10.25;;;;;25.63;48.67;101049.47;5014881;28;51196;-52
2021/07/03 07:26:49;;;;;;;;;9.00;8.25;;;;;25.63;48.42;101047.56;5056125;27;51162;-53
2021/07/03 07:29:15;;;;;;;;;9.50;9.50;;;;;25.64;48.61;101048.41;5038493;27;51751;-51
2021/07/03 07:31:40;;;;;;;;;10.50;10.50;;;;;25.65;48.27;101055.66;5023341;28;50945;-52
2021/07/03 07:34:06;;;;;;;;;10.75;9.25;;;;;25.67;48.41;101060.94;5023138;28;51007;-51
2021/07/03 07:36:31;;;;;;;;;10.25;9.50;;;;;25.67;48.22;101056.22;5023122;28;51223;-52
2021/07/03 07:38:57;;;;;;;;;14.50;13.00;;;;;25.69;47.92;101061.53;5017082;28;51250;-48
2021/07/03 07:41:22;;;;;;;;;13.50;11.25;;;;;25.69;47.67;101054.03;5010538;28;51234;-52
2021/07/03 07:43:47;;;;;;;;;14.75;12.00;;;;;25.71;47.69;101067.69;5010094;28;51308;-47
2021/07/03 07:46:13;;;;;;;;;15.25;11.25;;;;;25.71;47.47;101067.69;5014346;28;51245;-50
2021/07/03 07:48:38;;;;;;;;;12.00;9.25;;;;;25.68;47.70;101055.13;5013669;28;51754;-49
2021/07/03 07:51:04;;;;;;;;;11.00;10.25;;;;;25.68;47.85;101062.63;5007549;27;51046;-47
2021/07/03 07:53:31;;;;;;;;;10.75;10.50;;;;;25.68;47.55;101069.00;5031438;28;51202;-46
2021/07/03 07:55:57;;;;;;;;;12.50;9.75;;;;;25.66;47.54;101079.53;5021671;28;51366;-49
2021/07/03 07:58:23;;;;;;;;;8.75;8.50;;;;;25.65;47.80;101077.00;5016483;28;51129;-49
2021/07/03 08:00:49;;;;;;;;;8.75;8.75;;;;;25.65;47.72;101077.00;5016830;27;51086;-53
2021/07/03 08:03:15;;;;;;;;;9.75;9.25;;;;;25.65;47.84;101075.06;5028810;27;51144;-53
2021/07/03 08:05:40;;;;;;;;;10.00;7.75;;;;;25.65;47.70;101068.69;5015087;28;51295;-52
2021/07/03 08:08:06;;;;;;;;;10.75;8.00;;;;;25.64;47.64;101059.50;5019941;27;51669;-55
2021/07/03 08:10:37;;;;;;;;;11.50;10.25;;;;;25.66;47.61;101067.59;5025895;27;51184;-53
2021/07/03 08:13:04;;;;;;;;;10.50;9.50;;;;;25.66;47.42;101053.72;5025838;28;50442;-56
2021/07/03 08:15:31;;;;;;;;;9.25;9.25;;;;;25.66;47.69;101060.09;5024640;27;51300;-58
2021/07/03 08:17:56;;;;;;;;;10.50;9.25;;;;;25.67;47.62;101058.16;5022319;27;52025;-48
2021/07/03 08:20:22;;;;;;;;;10.00;9.25;;;;;25.66;47.75;101073.13;5014678;27;51184;-58
2021/07/03 08:22:50;;;;;;;;;13.00;10.00;;;;;25.66;47.66;101070.34;5024312;27;51058;-45
2021/07/03 08:25:17;;;;;;;;;12.25;11.25;;;;;25.65;47.78;101069.53;5017699;28;51031;-41
2021/07/03 08:27:43;;;;;;;;;9.00;9.00;;;;;25.67;48.05;101069.25;5018986;27;51908;-40
2021/07/03 08:30:10;;;;;;;;;10.25;7.75;;;;;25.67;47.94;101066.47;5037039;27;51240;-40
2021/07/03 08:32:35;;;;;;;;;9.50;8.50;;;;;25.68;47.35;101066.22;5017967;28;51507;-43
2021/07/03 08:35:02;;;;;;;;;11.75;10.00;;;;;25.67;47.63;101069.25;5015092;28;51396;-44
2021/07/03 08:37:27;;;;;;;;;11.00;8.50;;;;;25.66;47.35;101070.34;5014124;28;51206;-43
2021/07/03 08:39:53;;;;;;;;;12.25;10.50;;;;;25.66;47.32;101064.81;5017605;27;51288;-43
2021/07/03 08:42:18;;;;;;;;;14.50;11.00;;;;;25.63;47.40;101071.69;5014837;28;51003;-43
2021/07/03 08:44:48;;;;;;;;;9.25;8.75;;;;;25.64;47.56;101070.63;5014061;27;51287;-43
2021/07/03 08:47:14;;;;;;;;;10.00;10.00;;;;;25.63;47.48;101080.00;5015082;27;51266;-44
2021/07/03 08:49:41;;;;;;;;;11.00;11.00;;;;;25.63;47.78;101075.28;5025540;27;51129;-46
2021/07/03 08:52:06;;;;;;;;;13.75;11.25;;;;;25.65;47.59;101085.31;5015043;28;51077;-42
2021/07/03 08:54:31;;;;;;;;;12.50;11.25;;;;;25.64;47.49;101078.94;5016482;28;50986;-42
2021/07/03 08:57:00;;;;;;;;;11.00;11.00;;;;;25.62;47.35;101081.94;5018816;28;50988;-43
2021/07/03 08:59:27;;;;;;;;;12.00;11.00;;;;;25.65;47.51;101088.09;5031129;28;50823;-43
2021/07/03 09:01:58;;;;;;;;;10.25;10.25;;;;;25.64;47.34;101092.81;5030693;27;51126;-44
2021/07/03 09:04:39;;;;;;;;;11.00;10.25;;;;;25.63;47.52;101088.31;5031173;27;51354;-46
2021/07/03 09:07:15;;;;;;;;;10.75;10.00;;;;;25.62;47.48;101084.72;5014456;28;52696;-44
2021/07/03 09:09:40;;;;;;;;;12.00;10.75;;;;;25.62;47.56;101083.88;5016346;28;51497;-43
2021/07/03 09:12:06;;;;;;;;;13.50;10.75;;;;;25.61;47.68;101074.72;5015972;28;51074;-44
2021/07/03 09:14:31;;;;;;;;;12.50;10.75;;;;;25.62;47.80;101078.31;5014363;27;51316;-42
2021/07/03 09:16:58;;;;;;;;;11.50;8.25;;;;;25.61;47.80;101083.03;5029098;27;51868;-43
2021/07/03 09:19:29;;;;;;;;;8.50;8.50;;;;;25.62;47.89;101078.31;5029707;27;51175;-45
2021/07/03 09:21:55;;;;;;;;;9.50;9.50;;;;;25.61;47.84;101076.63;5014453;28;50976;-45
2021/07/03 09:24:21;;;;;;;;;11.00;10.50;;;;;25.62;47.94;101089.41;5013902;27;51362;-46
2021/07/03 09:27:03;;;;;;;;;7.50;7.50;;;;;25.61;48.02;101087.72;5015704;28;51110;-44
2021/07/03 09:29:29;;;;;;;;;11.75;10.50;;;;;25.61;48.06;101083.03;5009369;27;51372;-43
2021/07/03 09:32:05;;;;;;;;;10.25;10.00;;;;;25.62;48.10;101089.41;5022524;28;50471;-44
2021/07/03 09:34:31;;;;;;;;;10.00;10.00;;;;;25.61;48.16;101087.72;5019666;28;51314;-45
2021/07/03 09:37:04;;;;;;;;;12.25;11.00;;;;;25.62;48.05;101094.97;5013669;28;51274;-42
2021/07/03 09:39:29;;;;;;;;;15.50;14.00;;;;;25.60;48.36;101095.22;5015526;28;52347;-44
2021/07/03 09:41:54;;;;;;;;;14.00;13.25;;;;;25.60;48.86;101092.44;5017025;27;51241;-46
2021/07/03 09:44:20;;;;;;;;;14.50;13.00;;;;;25.60;48.68;101109.09;5014670;28;51190;-44
2021/07/03 09:46:51;;;;;;;;;12.25;11.25;;;;;25.60;48.73;101105.47;5013717;28;51540;-46
2021/07/03 09:49:25;;;;;;;;;14.00;12.25;;;;;25.61;48.40;101109.94;5027817;28;51265;-44
2021/07/03 09:51:54;;;;;;;;;13.25;11.25;;;;;25.61;48.42;101104.38;5012200;28;51143;-44
2021/07/03 09:54:30;;;;;;;;;13.00;11.75;;;;;25.60;48.56;101103.53;5015000;28;51386;-48
2021/07/03 09:56:58;;;;;;;;;11.50;11.50;;;;;25.61;48.60;101108.00;5017384;28;51853;-44
2021/07/03 09:59:32;;;;;;;;;11.25;11.25;;;;;25.62;48.49;101111.59;5014590;28;51317;-43
2021/07/03 10:01:58;;;;;;;;;17.25;16.00;;;;;25.61;48.74;101113.53;5025205;28;50996;-44
2021/07/03 10:04:24;;;;;;;;;14.75;12.00;;;;;25.61;48.53;101118.25;5015428;28;51096;-47
2021/07/03 10:06:55;;;;;;;;;11.50;11.50;;;;;25.61;48.54;101115.47;5012523;28;52298;-44
2021/07/03 10:09:31;;;;;;;;;16.00;13.75;;;;;25.61;49.14;101109.94;5014254;28;51300;-46
2021/07/03 10:12:01;;;;;;;;;13.00;11.75;;;;;25.61;48.62;101110.78;5014491;27;51080;-43
2021/07/03 10:14:27;;;;;;;;;14.00;12.50;;;;;25.62;48.76;101109.69;5030521;28;51134;-44
2021/07/03 10:17:01;;;;;;;;;15.50;11.25;;;;;25.62;48.83;101111.59;5012647;28;51158;-45
2021/07/03 10:19:34;;;;;;;;;9.75;8.75;;;;;25.62;49.04;101098.56;5013426;28;50951;-48
2021/07/03 10:22:20;;;;;;;;;13.25;12.25;;;;;25.63;49.11;101091.94;5014123;28;51049;-46
2021/07/03 10:24:48;;;;;;;;;14.00;12.75;;;;;25.66;48.89;101092.56;5015150;28;51101;-46
2021/07/03 10:27:19;;;;;;;;;10.50;10.00;;;;;25.66;49.11;101095.31;5033832;27;51659;-44
2021/07/03 10:29:47;;;;;;;;;15.50;12.00;;;;;25.67;49.26;101094.22;5011800;28;53116;-46
2021/07/03 10:32:27;;;;;;;;;10.50;9.75;;;;;25.68;48.99;101095.91;5036627;27;50840;-44
2021/07/03 10:34:54;;;;;;;;;16.75;14.25;;;;;25.69;49.10;101095.66;5009577;27;51370;-43
2021/07/03 10:37:30;;;;;;;;;12.50;10.25;;;;;25.69;49.68;101090.09;5011873;28;51052;-46
2021/07/03 10:39:57;;;;;;;;;10.75;10.25;;;;;25.72;49.57;101095.19;5012162;27;51291;-44
2021/07/03 10:42:31;;;;;;;;;14.25;13.00;;;;;25.74;49.77;101100.47;5009810;28;51184;-42
2021/07/03 10:45:08;;;;;;;;;15.00;13.00;;;;;25.76;49.49;101101.09;5011475;27;50898;-45
2021/07/03 10:47:34;;;;;;;;;11.25;11.00;;;;;25.79;49.40;101100.56;5008313;28;52779;-46
2021/07/03 10:49:59;;;;;;;;;13.00;12.00;;;;;25.81;49.44;101103.94;5011507;28;51237;-42
2021/07/03 10:52:25;;;;;;;;;11.00;10.25;;;;;25.80;48.91;101103.09;5012919;28;51079;-43
2021/07/03 10:55:01;;;;;;;;;13.50;12.00;;;;;25.82;48.60;101103.66;5010291;28;51179;-42
2021/07/03 10:57:27;;;;;;;;;12.25;12.25;;;;;25.83;48.74;101097.03;5012740;28;51909;-42
2021/07/03 11:00:04;;;;;;;;;13.25;11.25;;;;;25.83;48.02;101098.97;5015838;28;51048;-42
2021/07/03 11:02:31;;;;;;;;;13.00;11.50;;;;;25.84;48.27;101093.16;5011168;28;51046;-42
2021/07/03 11:05:01;;;;;;;;;15.50;10.25;;;;;25.85;47.70;101088.47;5022272;28;50942;-45
2021/07/03 11:07:32;;;;;;;;;9.25;9.00;;;;;25.86;47.34;101098.47;5014519;28;52193;-43
2021/07/03 11:10:10;;;;;;;;;11.00;10.50;;;;;25.86;46.81;101095.69;5028279;28;51325;-45